Time;durP1;ratioP1;P1;durP2;ratioP2;P2;SDS_P1;SDS_P2;PMS_P1;PMS_P2;Temp;Humidity;BMP_temperature;BMP_pressure;BME280_temperature;BME280_humidity;BME280_pressure;Samples;Min_cycle;Max_cycle;Signal;HPM_P1;HPM_P2
2023/03/18 00:00:22;;;;;;;;;;;;;;;-0.66;59.31;97428.18;108933;1251;99877;-79
2023/03/18 00:03:10;;;;;;;;;;;;;;;-0.72;59.44;97426.15;108902;1251;95554;-78
2023/03/18 00:05:39;;;;;;;;;;;;;;;-0.77;59.63;97423.54;108941;1251;95676;-77
2023/03/18 00:08:08;;;;;;;;;;;;;;;-0.80;59.68;97419.40;108940;1251;102513;-78
2023/03/18 00:10:36;;;;;;;;;;;;;;;-0.85;59.77;97421.33;108959;1250;101306;-80
2023/03/18 00:13:04;;;;;;;;;;;;;;;-0.91;59.94;97416.86;108948;1251;99037;-80
2023/03/18 00:15:32;;;;;;;;;;;;;;;-0.97;59.91;97415.92;108975;1251;95523;-77
2023/03/18 00:18:00;;;;;;;;;;;;;;;-1.06;60.06;97410.84;108943;1251;95666;-77
2023/03/18 00:20:37;;;;;;;;;;;;;;;-1.13;60.14;97409.31;108969;1251;104095;-78
2023/03/18 00:23:08;;;;;;;;;;;;;;;-1.15;60.36;97411.28;108940;1251;101349;-76
2023/03/18 00:25:37;;;;;;;;;;;;;;;-1.17;60.55;97404.02;108894;1252;99718;-76
2023/03/18 00:28:06;;;;;;;;;;;;;;;-1.18;60.61;97398.98;108885;1251;95663;-77
2023/03/18 00:30:37;;;;;;;;;;;;;;;-1.14;60.68;97394.44;108727;1251;96413;-77
2023/03/18 00:33:05;;;;;;;;;;;;;;;-1.10;60.77;97393.56;108929;1250;103438;-79
2023/03/18 00:35:35;;;;;;;;;;;;;;;-1.06;60.83;97390.23;108966;1250;101315;-77
2023/03/18 00:38:06;;;;;;;;;;;;;;;-1.03;60.66;97386.08;108869;1251;99822;-80
2023/03/18 00:40:52;;;;;;;;;;;;;;;-1.02;60.56;97380.86;108953;1251;95513;-78
2023/03/18 00:43:21;;;;;;;;;;;;;;;-1.02;60.72;97380.86;108861;1251;95577;-80
2023/03/18 00:45:50;;;;;;;;;;;;;;;-1.05;60.69;97378.98;108989;1251;103644;-79
2023/03/18 00:48:18;;;;;;;;;;;;;;;-1.05;60.60;97379.18;108913;1251;101538;-78
2023/03/18 00:50:46;;;;;;;;;;;;;;;-1.05;60.82;97379.71;108734;1251;99977;-77
2023/03/18 00:53:15;;;;;;;;;;;;;;;-1.06;60.83;97376.11;108745;1253;95530;-77
2023/03/18 00:55:43;;;;;;;;;;;;;;;-1.06;60.75;97377.16;108767;1252;95735;-77
2023/03/18 00:58:11;;;;;;;;;;;;;;;-1.05;60.68;97373.16;108807;1252;103306;-77
2023/03/18 01:00:40;;;;;;;;;;;;;;;-1.04;60.64;97370.42;108914;1252;101449;-79
2023/03/18 01:03:08;;;;;;;;;;;;;;;-1.04;60.66;97369.34;108877;1253;99780;-77
2023/03/18 01:05:37;;;;;;;;;;;;;;;-1.04;60.68;97368.64;108872;1254;95659;-77
2023/03/18 01:08:05;;;;;;;;;;;;;;;-1.04;60.70;97371.98;108596;1252;95994;-77
2023/03/18 01:10:33;;;;;;;;;;;;;;;-1.04;60.71;97372.94;108889;1253;102598;-77
2023/03/18 01:13:01;;;;;;;;;;;;;;;-1.08;60.66;97376.55;108858;1254;100007;-77
2023/03/18 01:15:29;;;;;;;;;;;;;;;-1.09;60.70;97375.26;108597;1253;99462;-79
2023/03/18 01:17:58;;;;;;;;;;;;;;;-1.11;60.77;97375.94;108716;1253;95571;-80
2023/03/18 01:20:26;;;;;;;;;;;;;;;-1.12;60.76;97369.22;108869;1254;95620;-77
2023/03/18 01:22:55;;;;;;;;;;;;;;;-1.15;60.83;97369.60;108833;1254;103628;-77
2023/03/18 01:25:23;;;;;;;;;;;;;;;-1.17;60.93;97366.98;108891;1253;101342;-77
2023/03/18 01:27:52;;;;;;;;;;;;;;;-1.17;60.98;97363.48;108852;1252;99872;-77
2023/03/18 01:30:22;;;;;;;;;;;;;;;-1.19;61.00;97361.50;108758;1252;95531;-77
2023/03/18 01:32:50;;;;;;;;;;;;;;;-1.20;60.99;97356.48;108878;1252;95736;-79
2023/03/18 01:35:19;;;;;;;;;;;;;;;-1.21;60.88;97353.79;108883;1252;103586;-77
2023/03/18 01:37:46;;;;;;;;;;;;;;;-1.24;61.00;97348.92;108851;1253;101514;-78
2023/03/18 01:40:16;;;;;;;;;;;;;;;-1.25;61.00;97347.10;108842;1252;99724;-79
2023/03/18 01:42:48;;;;;;;;;;;;;;;-1.27;61.04;97346.16;108816;1253;95559;-77
2023/03/18 01:45:22;;;;;;;;;;;;;;;-1.28;61.07;97348.73;108813;1253;95624;-77
2023/03/18 01:47:50;;;;;;;;;;;;;;;-1.30;61.19;97349.44;108864;1254;103810;-79
2023/03/18 01:50:21;;;;;;;;;;;;;;;-1.31;61.13;97346.16;108911;1251;100689;-77
2023/03/18 01:52:52;;;;;;;;;;;;;;;-1.32;61.11;97343.30;108878;1251;99992;-76
2023/03/18 01:55:22;;;;;;;;;;;;;;;-1.32;61.28;97345.09;108884;1251;95774;-77
2023/03/18 01:57:51;;;;;;;;;;;;;;;-1.34;61.32;97345.99;108939;1251;95568;-77
2023/03/18 02:00:20;;;;;;;;;;;;;;;-1.35;61.29;97348.89;108910;1251;103949;-77
2023/03/18 02:02:49;;;;;;;;;;;;;;;-1.36;61.34;97347.39;108915;1251;101384;-80
2023/03/18 02:05:19;;;;;;;;;;;;;;;-1.37;61.41;97347.16;108906;1251;99567;-77
2023/03/18 02:07:47;;;;;;;;;;;;;;;-1.39;61.43;97348.73;108665;1251;95688;-77
2023/03/18 02:10:19;;;;;;;;;;;;;;;-1.40;61.41;97350.26;108942;1253;95642;-77
2023/03/18 02:12:50;;;;;;;;;;;;;;;-1.43;61.57;97354.75;108923;1251;104123;-77
2023/03/18 02:15:21;;;;;;;;;;;;;;;-1.47;61.69;97356.52;108959;1251;101419;-80
2023/03/18 02:17:55;;;;;;;;;;;;;;;-1.54;61.71;97357.86;108888;1251;99956;-80
2023/03/18 02:20:33;;;;;;;;;;;;;;;-1.58;61.74;97358.40;108910;1251;95533;-77
2023/03/18 02:23:06;;;;;;;;;;;;;;;-1.59;61.81;97355.98;108889;1251;95665;-80
2023/03/18 02:25:54;;;;;;;;;;;;;;;-1.58;61.83;97355.06;108936;1251;103611;-80
2023/03/18 02:28:24;;;;;;;;;;;;;;;-1.60;61.91;97355.02;108955;1251;101332;-80
2023/03/18 02:30:54;;;;;;;;;;;;;;;-1.60;61.85;97353.83;108851;1251;100056;-77
2023/03/18 02:33:25;;;;;;;;;;;;;;;-1.60;61.86;97353.30;108925;1251;95547;-78
2023/03/18 02:35:57;;;;;;;;;;;;;;;-1.62;61.98;97349.45;108962;1252;95773;-78
2023/03/18 02:38:25;;;;;;;;;;;;;;;-1.65;62.16;97354.05;108937;1251;103637;-77
2023/03/18 02:40:53;;;;;;;;;;;;;;;-1.67;62.11;97351.61;108711;1251;101321;-78
2023/03/18 02:43:23;;;;;;;;;;;;;;;-1.68;62.12;97354.02;108907;1251;100024;-79
2023/03/18 02:45:57;;;;;;;;;;;;;;;-1.69;62.15;97350.02;108871;1256;95592;-77
2023/03/18 02:48:28;;;;;;;;;;;;;;;-1.69;62.24;97351.84;108912;1251;95735;-77
2023/03/18 02:50:57;;;;;;;;;;;;;;;-1.69;62.22;97347.96;108947;1251;103443;-77
2023/03/18 02:53:25;;;;;;;;;;;;;;;-1.70;62.31;97349.94;108922;1251;101749;-77
2023/03/18 02:55:53;;;;;;;;;;;;;;;-1.71;62.29;97353.77;108901;1251;99912;-80
2023/03/18 02:58:21;;;;;;;;;;;;;;;-1.74;62.39;97348.91;108874;1251;95673;-77
2023/03/18 03:00:49;;;;;;;;;;;;;;;-1.79;62.44;97349.81;108954;1251;95704;-77
2023/03/18 03:03:17;;;;;;;;;;;;;;;-1.81;62.40;97346.25;108827;1253;103820;-77
2023/03/18 03:05:45;;;;;;;;;;;;;;;-1.81;62.41;97340.80;108945;1251;101266;-77
2023/03/18 03:08:14;;;;;;;;;;;;;;;-1.82;62.55;97340.38;108901;1251;100095;-76
2023/03/18 03:10:42;;;;;;;;;;;;;;;-1.83;62.41;97341.92;108916;1254;95596;-77
2023/03/18 03:13:10;;;;;;;;;;;;;;;-1.85;62.47;97341.55;108943;1251;95627;-79
2023/03/18 03:15:39;;;;;;;;;;;;;;;-1.86;62.48;97339.13;108987;1251;102620;-77
2023/03/18 03:18:07;;;;;;;;;;;;;;;-1.86;62.46;97338.06;108939;1251;101029;-77
2023/03/18 03:20:36;;;;;;;;;;;;;;;-1.87;62.69;97336.75;108888;1251;99916;-79
2023/03/18 03:23:07;;;;;;;;;;;;;;;-1.87;62.70;97338.20;108903;1251;95688;-77
2023/03/18 03:25:35;;;;;;;;;;;;;;;-1.87;62.75;97336.08;108695;1251;95637;-77
2023/03/18 03:28:04;;;;;;;;;;;;;;;-1.87;62.78;97334.33;108741;1251;103602;-77
2023/03/18 03:30:32;;;;;;;;;;;;;;;-1.88;62.69;97332.82;108948;1250;101347;-77
2023/03/18 03:33:01;;;;;;;;;;;;;;;-1.90;62.85;97336.17;108897;1251;99849;-77
2023/03/18 03:35:29;;;;;;;;;;;;;;;-1.93;62.82;97339.46;108906;1251;95878;-79
2023/03/18 03:37:57;;;;;;;;;;;;;;;-1.96;62.98;97340.41;108952;1251;95581;-79
2023/03/18 03:40:26;;;;;;;;;;;;;;;-1.97;63.11;97339.23;108941;1251;103437;-78
2023/03/18 03:42:54;;;;;;;;;;;;;;;-2.00;63.07;97336.89;108958;1251;101303;-78
2023/03/18 03:45:23;;;;;;;;;;;;;;;-2.03;63.12;97339.42;108862;1251;100095;-79
2023/03/18 03:47:52;;;;;;;;;;;;;;;-2.04;63.31;97341.32;108918;1251;95616;-79
2023/03/18 03:50:20;;;;;;;;;;;;;;;-2.07;63.38;97344.02;108980;1251;95524;-78
2023/03/18 03:52:48;;;;;;;;;;;;;;;-2.07;63.52;97340.73;108657;1251;103480;-77
2023/03/18 03:55:19;;;;;;;;;;;;;;;-2.07;63.47;97344.40;108945;1251;101596;-77
2023/03/18 03:57:48;;;;;;;;;;;;;;;-2.06;63.54;97350.16;108879;1251;99838;-80
2023/03/18 04:00:17;;;;;;;;;;;;;;;-2.08;63.65;97345.94;108938;1251;95571;-77
2023/03/18 04:02:45;;;;;;;;;;;;;;;-2.10;63.67;97346.43;108676;1251;95681;-77
2023/03/18 04:05:15;;;;;;;;;;;;;;;-2.10;63.58;97347.32;108917;1251;102585;-77
2023/03/18 04:07:43;;;;;;;;;;;;;;;-2.09;63.73;97351.64;108979;1251;100061;-77
2023/03/18 04:10:13;;;;;;;;;;;;;;;-2.08;63.81;97351.21;108720;1251;100087;-77
2023/03/18 04:12:42;;;;;;;;;;;;;;;-2.11;63.80;97354.11;108936;1251;95679;-77
2023/03/18 04:15:10;;;;;;;;;;;;;;;-2.12;63.99;97352.60;108945;1251;95592;-77
2023/03/18 04:17:38;;;;;;;;;;;;;;;-2.12;63.94;97352.42;108957;1251;103713;-78
2023/03/18 04:20:06;;;;;;;;;;;;;;;-2.12;63.84;97354.86;108882;1251;102449;-78
2023/03/18 04:22:35;;;;;;;;;;;;;;;-2.11;63.88;97353.58;108899;1251;99875;-76
2023/03/18 04:25:03;;;;;;;;;;;;;;;-2.09;64.00;97356.23;108854;1251;95539;-79
2023/03/18 04:27:31;;;;;;;;;;;;;;;-2.07;63.91;97357.67;108603;1255;95964;-77
2023/03/18 04:29:59;;;;;;;;;;;;;;;-2.06;63.86;97353.16;108913;1256;103556;-79
2023/03/18 04:32:27;;;;;;;;;;;;;;;-2.07;63.83;97354.80;108880;1251;101080;-76
2023/03/18 04:34:55;;;;;;;;;;;;;;;-2.08;64.00;97359.11;108756;1254;99580;-76
2023/03/18 04:37:23;;;;;;;;;;;;;;;-2.08;64.09;97358.77;108835;1251;95527;-79
2023/03/18 04:39:51;;;;;;;;;;;;;;;-2.07;64.07;97358.16;108899;1251;95602;-76
2023/03/18 04:42:19;;;;;;;;;;;;;;;-2.05;64.09;97359.62;108935;1251;102737;-76
2023/03/18 04:44:47;;;;;;;;;;;;;;;-2.04;64.09;97360.16;108917;1251;101229;-76
2023/03/18 04:47:15;;;;;;;;;;;;;;;-2.04;64.18;97358.19;108949;1251;99355;-79
2023/03/18 04:49:43;;;;;;;;;;;;;;;-2.03;64.22;97361.67;108907;1251;95545;-77
2023/03/18 04:52:11;;;;;;;;;;;;;;;-2.00;64.21;97357.90;108946;1251;96443;-76
2023/03/18 04:54:39;;;;;;;;;;;;;;;-1.97;64.15;97362.38;108786;1253;103514;-76
2023/03/18 04:57:07;;;;;;;;;;;;;;;-1.95;64.19;97360.30;108919;1251;101428;-78
2023/03/18 04:59:35;;;;;;;;;;;;;;;-1.95;64.23;97362.33;108787;1254;101134;-77
2023/03/18 05:02:03;;;;;;;;;;;;;;;-1.93;64.27;97358.11;108927;1251;95520;-77
2023/03/18 05:04:32;;;;;;;;;;;;;;;-1.91;64.27;97363.38;108943;1251;95701;-78
2023/03/18 05:07:01;;;;;;;;;;;;;;;-1.89;64.40;97362.33;108942;1251;103463;-76
2023/03/18 05:09:29;;;;;;;;;;;;;;;-1.87;64.40;97365.33;108936;1251;101113;-77
2023/03/18 05:11:56;;;;;;;;;;;;;;;-1.84;64.44;97362.10;108900;1251;100383;-76
2023/03/18 05:14:25;;;;;;;;;;;;;;;-1.80;64.40;97363.88;108879;1251;95507;-77
2023/03/18 05:16:53;;;;;;;;;;;;;;;-1.77;64.34;97364.31;108724;1251;95697;-76
2023/03/18 05:19:21;;;;;;;;;;;;;;;-1.73;64.39;97367.66;108921;1250;103718;-78
2023/03/18 05:21:49;;;;;;;;;;;;;;;-1.69;64.44;97369.07;108945;1251;101404;-77
2023/03/18 05:24:17;;;;;;;;;;;;;;;-1.66;64.40;97369.29;108858;1251;99015;-76
2023/03/18 05:26:45;;;;;;;;;;;;;;;-1.63;64.48;97368.91;108882;1251;95540;-76
2023/03/18 05:29:13;;;;;;;;;;;;;;;-1.60;64.52;97366.70;108655;1252;95661;-80
2023/03/18 05:31:41;;;;;;;;;;;;;;;-1.57;64.48;97364.83;108808;1251;104659;-77
2023/03/18 05:34:09;;;;;;;;;;;;;;;-1.54;64.58;97363.80;108927;1251;101481;-77
2023/03/18 05:36:37;;;;;;;;;;;;;;;-1.51;64.66;97364.25;108743;1251;99980;-79
2023/03/18 05:39:05;;;;;;;;;;;;;;;-1.47;64.67;97367.30;108857;1251;95543;-76
2023/03/18 05:41:33;;;;;;;;;;;;;;;-1.44;64.94;97362.88;108937;1251;95575;-78
2023/03/18 05:44:01;;;;;;;;;;;;;;;-1.40;64.99;97363.45;108866;1251;103624;-77
2023/03/18 05:46:29;;;;;;;;;;;;;;;-1.34;64.87;97362.77;108935;1250;101115;-77
2023/03/18 05:48:57;;;;;;;;;;;;;;;-1.29;64.95;97361.20;108926;1251;99172;-79
2023/03/18 05:51:26;;;;;;;;;;;;;;;-1.23;64.96;97360.16;108897;1251;95615;-76
2023/03/18 05:53:54;;;;;;;;;;;;;;;-1.17;64.89;97360.25;108953;1251;96345;-77
2023/03/18 05:56:23;;;;;;;;;;;;;;;-1.10;64.89;97361.41;108926;1251;111518;-75
2023/03/18 05:58:51;;;;;;;;;;;;;;;-1.04;64.89;97358.38;108938;1251;101288;-77
2023/03/18 06:01:20;;;;;;;;;;;;;;;-0.96;64.87;97358.91;108927;1251;100016;-77
2023/03/18 06:03:48;;;;;;;;;;;;;;;-0.88;64.95;97359.73;108935;1251;95551;-77
2023/03/18 06:06:17;;;;;;;;;;;;;;;-0.81;64.74;97354.70;108972;1251;95610;-77
2023/03/18 06:08:45;;;;;;;;;;;;;;;-0.72;64.65;97353.48;108966;1251;103530;-79
2023/03/18 06:11:14;;;;;;;;;;;;;;;-0.62;64.70;97356.45;109031;1251;101352;-77
2023/03/18 06:13:42;;;;;;;;;;;;;;;-0.54;64.80;97355.15;108912;1251;99469;-76
2023/03/18 06:16:10;;;;;;;;;;;;;;;-0.45;64.73;97351.84;108942;1251;95511;-77
2023/03/18 06:18:38;;;;;;;;;;;;;;;-0.34;64.60;97352.25;108917;1251;95633;-78
2023/03/18 06:21:07;;;;;;;;;;;;;;;-0.23;64.57;97352.40;108853;1251;103759;-76
2023/03/18 06:23:36;;;;;;;;;;;;;;;-0.14;64.53;97354.48;108883;1251;101111;-78
2023/03/18 06:26:04;;;;;;;;;;;;;;;-0.06;64.26;97352.27;108649;1251;99900;-79
2023/03/18 06:28:32;;;;;;;;;;;;;;;0.04;64.21;97354.19;108920;1251;95517;-78
2023/03/18 06:31:01;;;;;;;;;;;;;;;0.15;64.24;97356.84;108727;1251;95621;-79
2023/03/18 06:33:30;;;;;;;;;;;;;;;0.28;64.15;97362.50;108883;1251;103573;-76
2023/03/18 06:35:59;;;;;;;;;;;;;;;0.40;64.20;97360.25;108917;1251;101312;-77
2023/03/18 06:38:27;;;;;;;;;;;;;;;0.53;64.00;97359.39;108913;1251;99754;-76
2023/03/18 06:40:55;;;;;;;;;;;;;;;0.65;63.69;97359.42;108943;1251;95641;-77
2023/03/18 06:43:23;;;;;;;;;;;;;;;0.81;63.70;97354.09;108883;1251;97129;-76
2023/03/18 06:45:51;;;;;;;;;;;;;;;1.02;63.52;97353.38;108971;1251;103807;-75
2023/03/18 06:48:20;;;;;;;;;;;;;;;1.23;63.28;97356.42;108968;1251;101324;-76
2023/03/18 06:50:48;;;;;;;;;;;;;;;1.43;62.90;97354.93;108882;1251;99880;-76
2023/03/18 06:53:16;;;;;;;;;;;;;;;1.64;62.50;97357.70;108885;1251;95494;-75
2023/03/18 06:55:44;;;;;;;;;;;;;;;1.87;61.94;97361.02;108951;1250;95642;-76
2023/03/18 06:58:12;;;;;;;;;;;;;;;2.08;61.63;97357.01;108679;1253;103441;-75
2023/03/18 07:00:44;;;;;;;;;;;;;;;2.31;61.19;97360.05;108922;1250;101457;-76
2023/03/18 07:03:14;;;;;;;;;;;;;;;2.57;60.60;97363.71;108864;1251;98749;-76
2023/03/18 07:05:42;;;;;;;;;;;;;;;2.84;60.02;97359.98;108890;1251;95558;-76
2023/03/18 07:08:10;;;;;;;;;;;;;;;3.12;59.33;97358.91;108933;1251;95965;-75
2023/03/18 07:10:39;;;;;;;;;;;;;;;3.41;58.83;97353.77;108945;1251;103520;-76
2023/03/18 07:13:07;;;;;;;;;;;;;;;3.67;58.41;97351.90;108921;1251;101252;-75
2023/03/18 07:15:37;;;;;;;;;;;;;;;3.93;57.73;97355.21;108882;1251;99757;-77
2023/03/18 07:18:05;;;;;;;;;;;;;;;4.21;57.18;97355.13;108670;1251;95826;-76
2023/03/18 07:20:33;;;;;;;;;;;;;;;4.47;56.31;97355.70;108890;1251;95745;-75
2023/03/18 07:23:02;;;;;;;;;;;;;;;4.73;55.94;97358.42;108941;1250;103650;-76
2023/03/18 07:25:31;;;;;;;;;;;;;;;4.99;55.06;97359.20;108947;1251;101327;-77
2023/03/18 07:28:00;;;;;;;;;;;;;;;5.22;54.34;97360.25;108932;1251;100341;-76
2023/03/18 07:30:29;;;;;;;;;;;;;;;5.45;53.93;97357.39;108927;1251;95588;-76
2023/03/18 07:32:57;;;;;;;;;;;;;;;5.69;53.44;97361.79;108946;1251;95645;-76
2023/03/18 07:35:25;;;;;;;;;;;;;;;5.92;52.94;97363.66;108976;1251;102679;-76
2023/03/18 07:37:54;;;;;;;;;;;;;;;6.17;52.34;97359.86;108932;1250;101322;-76
2023/03/18 07:40:23;;;;;;;;;;;;;;;6.44;51.90;97364.23;108878;1251;100015;-76
2023/03/18 07:42:52;;;;;;;;;;;;;;;6.76;51.37;97363.77;108860;1251;95564;-76
2023/03/18 07:45:20;;;;;;;;;;;;;;;7.11;51.03;97366.59;108927;1251;95641;-76
2023/03/18 07:47:48;;;;;;;;;;;;;;;7.45;50.30;97368.95;108927;1251;103658;-76
2023/03/18 07:50:17;;;;;;;;;;;;;;;7.78;49.94;97366.59;108910;1251;101541;-76
2023/03/18 07:52:45;;;;;;;;;;;;;;;8.09;49.34;97365.52;108893;1251;98568;-76
2023/03/18 07:55:14;;;;;;;;;;;;;;;8.37;48.39;97362.97;108886;1251;95907;-76
2023/03/18 07:57:42;;;;;;;;;;;;;;;8.65;48.16;97365.27;108953;1251;95589;-76
2023/03/18 08:00:11;;;;;;;;;;;;;;;8.95;47.67;97368.95;108786;1251;201141;-76
2023/03/18 08:02:39;;;;;;;;;;;;;;;9.27;47.32;97369.67;108665;1256;101334;-76
2023/03/18 08:05:07;;;;;;;;;;;;;;;9.58;46.69;97370.09;108897;1251;99767;-76
2023/03/18 08:07:35;;;;;;;;;;;;;;;9.91;46.16;97368.77;108683;1251;95748;-75
2023/03/18 08:10:04;;;;;;;;;;;;;;;10.21;45.65;97365.70;108928;1251;95560;-76
2023/03/18 08:12:32;;;;;;;;;;;;;;;10.48;44.99;97363.63;108976;1251;103111;-76
2023/03/18 08:14:59;;;;;;;;;;;;;;;10.75;44.68;97367.61;108699;1251;101523;-76
2023/03/18 08:17:27;;;;;;;;;;;;;;;11.07;44.49;97365.02;108842;1251;99662;-75
2023/03/18 08:19:56;;;;;;;;;;;;;;;11.41;43.78;97368.31;108901;1251;95528;-76
2023/03/18 08:22:24;;;;;;;;;;;;;;;11.68;43.07;97367.31;108917;1251;96427;-75
2023/03/18 08:24:52;;;;;;;;;;;;;;;11.95;42.74;97364.00;108709;1251;102619;-76
2023/03/18 08:27:20;;;;;;;;;;;;;;;12.18;42.12;97360.77;108907;1251;101151;-75
2023/03/18 08:29:48;;;;;;;;;;;;;;;12.45;42.11;97357.79;108906;1251;98916;-76
2023/03/18 08:32:17;;;;;;;;;;;;;;;12.72;41.90;97357.52;108940;1251;95641;-75
2023/03/18 08:34:45;;;;;;;;;;;;;;;12.98;41.39;97354.80;109008;1251;95644;-76
2023/03/18 08:37:13;;;;;;;;;;;;;;;13.16;40.45;97352.58;108920;1251;103719;-75
2023/03/18 08:39:43;;;;;;;;;;;;;;;13.27;40.12;97355.16;108942;1250;101471;-75
2023/03/18 08:42:11;;;;;;;;;;;;;;;13.36;39.50;97359.30;108862;1251;99429;-76
2023/03/18 08:44:39;;;;;;;;;;;;;;;13.36;39.10;97361.64;108711;1251;95732;-76
2023/03/18 08:47:07;;;;;;;;;;;;;;;13.37;38.60;97360.75;108938;1251;95637;-76
2023/03/18 08:49:35;;;;;;;;;;;;;;;13.40;38.51;97361.70;108610;1253;102536;-76
2023/03/18 08:52:05;;;;;;;;;;;;;;;13.44;37.60;97362.35;108858;1253;101261;-75
2023/03/18 08:54:34;;;;;;;;;;;;;;;13.44;37.96;97363.22;108867;1253;100055;-75
2023/03/18 08:57:02;;;;;;;;;;;;;;;13.49;36.93;97364.91;108820;1252;95862;-76
2023/03/18 08:59:30;;;;;;;;;;;;;;;13.52;36.96;97367.28;108849;1253;95704;-76
2023/03/18 09:01:57;;;;;;;;;;;;;;;13.64;37.26;97367.92;108650;1253;103815;-76
2023/03/18 09:04:25;;;;;;;;;;;;;;;13.75;36.75;97365.60;108743;1253;101344;-76
2023/03/18 09:06:53;;;;;;;;;;;;;;;13.82;36.37;97365.25;108800;1253;99980;-75
2023/03/18 09:09:21;;;;;;;;;;;;;;;13.96;36.19;97360.44;108844;1253;95528;-75
2023/03/18 09:11:49;;;;;;;;;;;;;;;14.16;36.01;97362.59;108915;1253;95594;-76
2023/03/18 09:14:18;;;;;;;;;;;;;;;14.36;36.25;97360.50;108829;1252;103706;-76
2023/03/18 09:16:46;;;;;;;;;;;;;;;14.50;35.27;97357.33;108892;1253;99404;-75
2023/03/18 09:19:14;;;;;;;;;;;;;;;14.60;35.17;97352.67;108821;1253;99937;-76
2023/03/18 09:21:43;;;;;;;;;;;;;;;14.73;35.24;97353.04;108844;1253;95821;-76
2023/03/18 09:24:11;;;;;;;;;;;;;;;14.88;34.90;97355.67;108848;1253;96071;-76
2023/03/18 09:26:39;;;;;;;;;;;;;;;14.97;34.04;97351.36;108875;1253;102208;-76
2023/03/18 09:29:07;;;;;;;;;;;;;;;15.04;33.82;97349.80;108846;1253;100047;-76
2023/03/18 09:31:36;;;;;;;;;;;;;;;15.18;33.78;97344.43;108826;1252;100032;-75
2023/03/18 09:34:04;;;;;;;;;;;;;;;15.35;34.14;97344.94;108849;1253;95567;-75
2023/03/18 09:36:32;;;;;;;;;;;;;;;15.54;33.96;97340.17;108661;1253;95802;-75
2023/03/18 09:39:00;;;;;;;;;;;;;;;15.68;33.40;97341.70;108832;1253;103623;-75
2023/03/18 09:41:48;;;;;;;;;;;;;;;15.77;33.46;97340.56;108887;1252;111206;-75
2023/03/18 09:44:27;;;;;;;;;;;;;;;15.83;33.21;97337.71;108812;1253;100099;-75
2023/03/18 09:46:55;;;;;;;;;;;;;;;15.98;32.59;97335.90;108866;1252;95611;-75
2023/03/18 09:49:23;;;;;;;;;;;;;;;16.18;32.67;97330.95;108634;1251;96144;-74
2023/03/18 09:52:23;;;;;;;;;;;;;;;16.44;32.22;97331.23;108931;1251;103819;-74
2023/03/18 09:54:51;;;;;;;;;;;;;;;16.61;31.78;97328.06;108298;1259;101456;-75
2023/03/18 09:57:25;;;;;;;;;;;;;;;16.69;31.35;97327.24;108230;1259;99174;-75
2023/03/18 09:59:55;;;;;;;;;;;;;;;16.84;31.06;97328.98;108242;1259;95953;-75
2023/03/18 10:02:32;;;;;;;;;;;;;;;17.07;30.90;97325.77;108289;1259;95702;-75
2023/03/18 10:05:11;;;;;;;;;;;;;;;17.28;30.76;97322.64;108286;1259;103563;-75
2023/03/18 10:07:41;;;;;;;;;;;;;;;17.48;30.35;97318.80;108286;1259;101949;-76
2023/03/18 10:10:15;;;;;;;;;;;;;;;17.45;28.73;97317.20;108056;1259;100049;-75
2023/03/18 10:12:47;;;;;;;;;;;;;;;17.36;29.43;97315.95;108284;1259;95596;-75
2023/03/18 10:15:41;;;;;;;;;;;;;;;17.49;29.61;97315.55;108289;1259;95793;-75
2023/03/18 10:18:09;;;;;;;;;;;;;;;17.75;29.33;97314.90;107839;1267;103758;-75
2023/03/18 10:20:37;;;;;;;;;;;;;;;17.96;28.99;97310.93;107848;1266;101313;-75
2023/03/18 10:23:21;;;;;;;;;;;;;;;18.07;28.91;97310.36;107747;1266;98930;-75
2023/03/18 10:25:49;;;;;;;;;;;;;;;18.25;28.48;97305.14;107817;1266;96145;-74
2023/03/18 10:28:26;;;;;;;;;;;;;;;18.40;28.64;97306.88;107852;1266;95780;-73
2023/03/18 10:31:13;;;;;;;;;;;;;;;18.61;28.17;97302.00;108063;1259;102436;-75
2023/03/18 10:34:08;;;;;;;;;;;;;;;18.74;27.99;97298.95;108241;1259;100041;-74
2023/03/18 10:36:36;;;;;;;;;;;;;;;18.78;28.09;97295.92;108032;1259;98930;-74
2023/03/18 10:39:11;;;;;;;;;;;;;;;18.89;27.91;97296.80;108245;1259;95860;-74
2023/03/18 10:41:39;;;;;;;;;;;;;;;19.01;28.16;97291.91;108294;1259;95700;-74
2023/03/18 10:44:17;;;;;;;;;;;;;;;19.14;26.93;97287.58;108251;1259;112103;-74
2023/03/18 10:46:52;;;;;;;;;;;;;;;19.15;27.30;97284.19;108239;1258;101096;-74
2023/03/18 10:49:25;;;;;;;;;;;;;;;19.26;27.10;97283.45;108240;1259;99655;-74
2023/03/18 10:51:56;;;;;;;;;;;;;;;19.34;26.98;97280.74;108083;1259;95626;-74
2023/03/18 10:54:24;;;;;;;;;;;;;;;19.45;26.69;97281.37;108143;1259;96125;-74
2023/03/18 10:56:54;;;;;;;;;;;;;;;19.52;26.55;97280.77;108922;1250;103553;-75
2023/03/18 10:59:23;;;;;;;;;;;;;;;19.57;26.77;97275.34;108924;1251;101342;-74
2023/03/18 11:01:53;;;;;;;;;;;;;;;19.69;26.90;97275.84;108890;1251;99109;-74
2023/03/18 11:04:22;;;;;;;;;;;;;;;19.79;26.38;97280.40;108706;1251;96081;-75
2023/03/18 11:07:05;;;;;;;;;;;;;;;19.89;26.40;97276.19;108935;1251;95584;-74
2023/03/18 11:09:35;;;;;;;;;;;;;;;20.04;25.97;97270.09;108924;1251;103513;-74
2023/03/18 11:12:07;;;;;;;;;;;;;;;20.10;25.80;97265.33;108916;1251;101273;-76
2023/03/18 11:14:36;;;;;;;;;;;;;;;20.04;25.71;97264.23;108861;1251;100015;-77
2023/03/18 11:17:06;;;;;;;;;;;;;;;20.02;25.80;97261.45;108894;1251;95791;-77
2023/03/18 11:19:40;;;;;;;;;;;;;;;20.12;26.51;97261.33;108905;1251;95773;-77
2023/03/18 11:22:08;;;;;;;;;;;;;;;20.31;26.05;97259.98;108922;1251;103222;-77
2023/03/18 11:24:41;;;;;;;;;;;;;;;20.45;25.34;97253.13;108951;1251;101460;-77
2023/03/18 11:27:15;;;;;;;;;;;;;;;20.62;25.66;97253.73;108893;1251;99709;-78
2023/03/18 11:29:45;;;;;;;;;;;;;;;20.79;25.35;97246.70;108908;1251;95572;-77
2023/03/18 11:32:24;;;;;;;;;;;;;;;20.92;25.48;97245.83;108760;1252;95620;-77
2023/03/18 11:34:59;;;;;;;;;;;;;;;21.04;25.32;97243.19;108890;1251;103450;-77
2023/03/18 11:37:30;;;;;;;;;;;;;;;21.15;25.10;97240.95;108924;1251;101827;-77
2023/03/18 11:40:13;;;;;;;;;;;;;;;21.32;24.63;97236.48;108878;1251;99888;-77
2023/03/18 11:42:42;;;;;;;;;;;;;;;21.35;24.60;97231.36;108927;1251;95643;-77
2023/03/18 11:45:30;;;;;;;;;;;;;;;21.34;24.52;97226.86;108858;1251;95726;-77
2023/03/18 11:47:59;;;;;;;;;;;;;;;21.34;24.82;97226.54;108890;1250;103543;-78
2023/03/18 11:50:32;;;;;;;;;;;;;;;21.35;23.68;97224.76;108882;1251;101144;-77
2023/03/18 11:53:08;;;;;;;;;;;;;;;21.08;24.01;97222.77;108867;1251;98454;-78
2023/03/18 11:55:36;;;;;;;;;;;;;;;20.96;23.99;97223.36;108954;1251;95498;-78
2023/03/18 11:58:22;;;;;;;;;;;;;;;21.03;24.57;97223.23;108643;1251;96061;-77
2023/03/18 12:01:02;;;;;;;;;;;;;;;21.24;24.71;97222.63;108836;1251;103502;-77
2023/03/18 12:03:35;;;;;;;;;;;;;;;21.34;24.12;97219.83;108945;1251;101120;-78
2023/03/18 12:06:16;;;;;;;;;;;;;;;21.35;23.93;97220.49;108898;1251;98449;-78
2023/03/18 12:08:53;;;;;;;;;;;;;;;21.44;24.03;97217.90;108882;1251;96072;-77
2023/03/18 12:11:27;;;;;;;;;;;;;;;21.60;24.58;97212.34;108858;1251;95676;-78
2023/03/18 12:13:58;;;;;;;;;;;;;;;21.71;23.97;97210.17;108900;1250;103463;-74
2023/03/18 12:16:26;;;;;;;;;;;;;;;21.67;23.59;97210.46;108898;1251;101135;-75
2023/03/18 12:18:58;;;;;;;;;;;;;;;21.53;23.74;97209.76;108606;1251;99920;-76
2023/03/18 12:21:44;;;;;;;;;;;;;;;21.50;24.04;97206.81;108851;1253;95590;-74
2023/03/18 12:24:30;;;;;;;;;;;;;;;21.71;24.15;97204.77;108905;1251;95621;-73
2023/03/18 12:26:58;;;;;;;;;;;;;;;22.06;23.79;97203.17;108801;1252;103483;-74
2023/03/18 12:29:47;;;;;;;;;;;;;;;22.30;24.09;97198.58;108722;1250;102830;-74
2023/03/18 12:32:30;;;;;;;;;;;;;;;22.51;23.37;97199.83;108867;1251;100219;-75
2023/03/18 12:35:01;;;;;;;;;;;;;;;22.62;22.81;97199.76;108972;1251;95906;-75
2023/03/18 12:37:49;;;;;;;;;;;;;;;22.86;23.31;97198.71;108901;1251;96030;-75
2023/03/18 12:40:43;;;;;;;;;;;;;;;23.24;22.79;97194.33;108891;1251;103204;-75
2023/03/18 12:43:11;;;;;;;;;;;;;;;23.44;22.57;97196.89;108877;1251;101317;-75
2023/03/18 12:45:43;;;;;;;;;;;;;;;23.43;22.48;97193.40;108886;1251;99906;-74
2023/03/18 12:48:27;;;;;;;;;;;;;;;23.37;22.24;97187.92;108887;1253;95533;-74